createdAt,value
2019-05-11T00:01:41.305Z,99.90
2019-05-11T00:04:09.707Z,99.90
2019-05-11T00:06:37.834Z,99.90
2019-05-11T00:09:06.894Z,99.90
2019-05-11T00:11:35.275Z,99.90
2019-05-11T00:14:03.508Z,99.90
2019-05-11T00:16:31.650Z,99.90
2019-05-11T00:19:00.177Z,99.90
2019-05-11T00:21:28.420Z,99.90
2019-05-11T00:23:56.599Z,99.90
2019-05-11T00:26:24.895Z,99.90
2019-05-11T00:28:53.253Z,99.90
2019-05-11T00:31:21.524Z,99.90
2019-05-11T00:33:49.727Z,99.90
2019-05-11T00:36:17.962Z,99.90
2019-05-11T00:38:46.278Z,99.90
2019-05-11T00:41:14.824Z,99.90
2019-05-11T00:43:43.199Z,99.90
2019-05-11T00:46:11.370Z,99.90
2019-05-11T00:48:39.586Z,99.90
2019-05-11T00:51:07.674Z,99.90
2019-05-11T00:53:36.007Z,99.90
2019-05-11T00:56:05.212Z,99.90
2019-05-11T00:58:33.459Z,99.90
2019-05-11T01:01:01.470Z,99.90
2019-05-11T01:03:29.747Z,99.90
2019-05-11T01:05:58.003Z,99.90
2019-05-11T01:08:26.190Z,99.90
2019-05-11T01:10:54.484Z,99.90
2019-05-11T01:13:22.721Z,99.90
2019-05-11T01:15:50.888Z,99.90
2019-05-11T01:18:19.312Z,99.90
2019-05-11T01:20:47.553Z,99.90
2019-05-11T01:23:15.711Z,99.90
2019-05-11T01:25:43.940Z,99.90
2019-05-11T01:28:11.950Z,99.90
2019-05-11T01:30:40.222Z,99.90
2019-05-11T01:33:08.449Z,99.90
2019-05-11T01:35:36.676Z,99.90
2019-05-11T01:38:04.848Z,99.90
2019-05-11T01:40:33.068Z,99.90
2019-05-11T01:43:01.194Z,99.90
2019-05-11T01:45:29.384Z,99.90
2019-05-11T01:48:16.914Z,99.90
2019-05-11T01:50:45.171Z,99.90
2019-05-11T01:53:13.462Z,99.90
2019-05-11T01:55:41.660Z,99.90
2019-05-11T01:58:09.908Z,99.90
2019-05-11T02:00:38.179Z,99.90
2019-05-11T02:03:06.614Z,99.90
2019-05-11T02:05:34.838Z,99.90
2019-05-11T02:08:03.022Z,99.90
2019-05-11T02:10:31.344Z,99.90
2019-05-11T02:12:59.514Z,99.90
2019-05-11T02:15:27.757Z,99.90
2019-05-11T02:17:56.050Z,99.90
2019-05-11T02:20:24.271Z,99.90
2019-05-11T02:22:52.248Z,99.90
2019-05-11T02:25:20.469Z,99.90
2019-05-11T02:27:48.715Z,99.90
2019-05-11T02:30:17.276Z,99.90
2019-05-11T02:32:45.666Z,99.90
2019-05-11T02:35:14.146Z,99.90
2019-05-11T02:37:42.399Z,99.90
2019-05-11T02:40:11.137Z,99.90
2019-05-11T02:42:39.693Z,99.90
2019-05-11T02:45:09.103Z,99.90
2019-05-11T02:47:37.511Z,99.90
2019-05-11T02:50:05.929Z,99.90
2019-05-11T02:52:35.003Z,99.90
2019-05-11T02:55:03.879Z,99.90
2019-05-11T02:57:32.111Z,99.90
2019-05-11T03:00:00.369Z,99.90
2019-05-11T03:02:28.790Z,99.90
2019-05-11T03:04:56.942Z,99.90
2019-05-11T03:07:25.315Z,99.90
2019-05-11T03:09:53.623Z,99.90
2019-05-11T03:12:21.864Z,99.90
2019-05-11T03:14:50.036Z,99.90
2019-05-11T03:17:22.328Z,99.90
2019-05-11T03:19:50.568Z,99.90
2019-05-11T03:22:18.744Z,99.90
2019-05-11T03:24:46.968Z,99.90
2019-05-11T03:27:15.126Z,99.90
2019-05-11T03:29:43.975Z,99.90
2019-05-11T03:32:12.215Z,99.90
2019-05-11T03:34:40.532Z,99.90
2019-05-11T03:37:08.836Z,99.90
2019-05-11T03:39:37.135Z,99.90
2019-05-11T03:42:14.759Z,99.90
2019-05-11T03:44:35.265Z,99.90
2019-05-11T03:47:03.696Z,99.90
2019-05-11T03:49:31.942Z,99.90
2019-05-11T03:52:00.095Z,99.90
2019-05-11T03:54:28.494Z,99.90
2019-05-11T03:56:56.766Z,99.90
2019-05-11T03:59:25.041Z,99.90
2019-05-11T04:01:53.013Z,99.90
2019-05-11T04:04:22.935Z,99.90
2019-05-11T04:06:51.304Z,99.90
2019-05-11T04:09:19.680Z,99.90
2019-05-11T04:11:47.941Z,99.90
2019-05-11T04:14:16.229Z,99.90
2019-05-11T04:16:44.460Z,99.90
2019-05-11T04:19:12.651Z,99.90
2019-05-11T04:21:40.865Z,99.90
2019-05-11T04:24:09.287Z,99.90
2019-05-11T04:26:37.494Z,99.90
2019-05-11T04:29:05.563Z,99.90
2019-05-11T04:31:34.075Z,99.90
2019-05-11T04:34:02.353Z,99.90
2019-05-11T04:36:30.645Z,99.90
2019-05-11T04:38:58.845Z,99.90
2019-05-11T04:41:27.046Z,99.90
2019-05-11T04:43:55.211Z,99.90
2019-05-11T04:46:23.449Z,99.90
2019-05-11T04:48:51.763Z,99.90
2019-05-11T04:51:19.968Z,99.90
2019-05-11T04:53:48.354Z,99.90
2019-05-11T04:56:16.597Z,99.90
2019-05-11T04:58:44.974Z,99.90
2019-05-11T05:01:13.286Z,99.90
2019-05-11T05:03:47.493Z,99.90
2019-05-11T05:06:22.277Z,99.90
2019-05-11T05:08:43.032Z,99.90
2019-05-11T05:11:11.267Z,99.90
2019-05-11T05:13:39.463Z,99.90
2019-05-11T05:16:07.850Z,99.90
2019-05-11T05:18:36.112Z,99.90
2019-05-11T05:21:04.283Z,99.90
2019-05-11T05:23:32.305Z,99.90
2019-05-11T05:26:00.526Z,99.90
2019-05-11T05:28:28.617Z,99.90
2019-05-11T05:30:57.042Z,99.90
2019-05-11T05:33:25.442Z,99.90
2019-05-11T05:35:53.617Z,99.90
2019-05-11T05:38:21.822Z,99.90
2019-05-11T05:40:50.072Z,99.90
2019-05-11T05:43:28.164Z,99.90
2019-05-11T05:45:48.397Z,99.90
2019-05-11T05:48:16.652Z,99.90
2019-05-11T05:50:44.913Z,99.90
2019-05-11T05:53:13.250Z,99.90
2019-05-11T05:55:41.469Z,99.90
2019-05-11T05:58:09.541Z,99.90
2019-05-11T06:00:38.958Z,99.90
2019-05-11T06:03:07.098Z,99.90
2019-05-11T06:05:35.166Z,99.90
2019-05-11T06:08:05.330Z,99.90
2019-05-11T06:10:33.815Z,99.90
2019-05-11T06:13:02.050Z,99.90
2019-05-11T06:15:30.393Z,99.90
2019-05-11T06:18:00.592Z,99.90
2019-05-11T06:20:30.110Z,99.90
2019-05-11T06:22:58.372Z,99.90
2019-05-11T06:25:26.620Z,99.90
2019-05-11T06:27:54.795Z,99.90
2019-05-11T06:30:23.239Z,99.90
2019-05-11T06:32:51.422Z,99.90
2019-05-11T06:35:22.590Z,99.90
2019-05-11T06:37:49.549Z,99.90
2019-05-11T06:40:17.946Z,99.90
2019-05-11T06:42:46.288Z,99.90
2019-05-11T06:45:14.737Z,99.90
2019-05-11T06:47:43.142Z,99.90
2019-05-11T06:50:11.609Z,99.90
2019-05-11T06:52:39.841Z,99.90
2019-05-11T06:55:08.260Z,99.90
2019-05-11T06:57:36.537Z,99.90
2019-05-11T07:00:05.175Z,99.90
2019-05-11T07:02:33.042Z,99.90
2019-05-11T07:05:01.253Z,99.90
2019-05-11T07:07:29.476Z,99.90
2019-05-11T07:09:59.347Z,99.90
2019-05-11T07:12:27.893Z,99.90
2019-05-11T07:14:56.160Z,99.90
2019-05-11T07:17:24.409Z,99.90
2019-05-11T07:19:52.645Z,99.90
2019-05-11T07:22:20.761Z,99.90
2019-05-11T07:24:48.998Z,99.90
2019-05-11T07:27:17.426Z,99.90
2019-05-11T07:29:45.615Z,99.90
2019-05-11T07:32:21.925Z,99.90
2019-05-11T07:34:43.844Z,99.90
2019-05-11T07:37:12.065Z,99.90
2019-05-11T07:39:40.289Z,99.90
2019-05-11T07:42:08.368Z,99.90
2019-05-11T07:44:39.311Z,99.90
2019-05-11T07:47:07.939Z,99.90
2019-05-11T07:49:38.298Z,99.90
2019-05-11T07:52:07.765Z,99.90
2019-05-11T07:54:38.374Z,99.90
2019-05-11T07:57:07.884Z,99.90
2019-05-11T07:59:38.006Z,99.90
2019-05-11T08:02:06.035Z,99.90
2019-05-11T08:04:34.212Z,99.90
2019-05-11T08:07:02.655Z,99.90
2019-05-11T08:09:30.883Z,99.90
2019-05-11T08:12:00.064Z,99.90
2019-05-11T08:14:28.922Z,99.90
2019-05-11T08:16:59.420Z,99.90
2019-05-11T08:19:28.302Z,99.90
2019-05-11T08:21:58.233Z,99.90
2019-05-11T08:24:28.432Z,99.90
2019-05-11T08:26:58.201Z,99.90
2019-05-11T08:29:27.817Z,99.90
2019-05-11T08:31:57.911Z,99.90
2019-05-11T08:34:28.407Z,99.90
2019-05-11T08:36:58.437Z,99.90
2019-05-11T08:39:28.661Z,99.90
2019-05-11T08:41:58.784Z,99.90
2019-05-11T08:44:28.745Z,99.90
2019-05-11T08:46:58.219Z,99.90
2019-05-11T08:49:28.731Z,99.90
2019-05-11T08:51:57.880Z,99.90
2019-05-11T08:54:28.560Z,99.90
2019-05-11T08:56:58.526Z,99.90
2019-05-11T08:59:27.871Z,99.90
2019-05-11T09:01:58.550Z,99.90
2019-05-11T09:04:28.640Z,99.90
2019-05-11T09:09:32.110Z,99.90
2019-05-11T09:12:00.276Z,99.90
2019-05-11T09:14:28.613Z,99.90
2019-05-11T09:16:57.731Z,99.90
2019-05-11T09:19:28.232Z,99.90
2019-05-11T09:21:56.007Z,99.90
2019-05-11T09:24:24.187Z,99.90
2019-05-11T09:26:52.514Z,99.90
2019-05-11T09:29:20.854Z,99.90
2019-05-11T09:31:49.210Z,99.90
2019-05-11T09:34:18.068Z,99.90
2019-05-11T09:36:48.057Z,99.90
2019-05-11T09:39:17.779Z,99.90
2019-05-11T09:41:48.648Z,99.90
2019-05-11T09:44:18.265Z,99.90
2019-05-11T09:46:47.797Z,99.90
2019-05-11T09:49:18.991Z,99.90
2019-05-11T09:51:48.342Z,99.90
2019-05-11T09:54:18.292Z,99.30
2019-05-11T09:56:48.625Z,98.70
2019-05-11T09:59:17.877Z,98.50
2019-05-11T10:01:48.307Z,98.50
2019-05-11T10:04:18.072Z,97.00
2019-05-11T10:06:48.033Z,98.10
2019-05-11T10:09:18.471Z,99.90
2019-05-11T10:11:47.995Z,99.90
2019-05-11T10:14:18.565Z,99.90
2019-05-11T10:16:46.386Z,99.90
2019-05-11T10:19:14.659Z,99.90
2019-05-11T10:21:43.038Z,99.90
2019-05-11T10:24:11.171Z,99.90
2019-05-11T10:26:39.480Z,99.90
2019-05-11T10:29:08.007Z,99.90
2019-05-11T10:31:38.385Z,99.90
2019-05-11T10:34:08.467Z,99.90
2019-05-11T10:36:38.316Z,99.90
2019-05-11T10:39:07.956Z,99.90
2019-05-11T10:41:55.256Z,99.90
2019-05-11T10:44:23.507Z,99.90
2019-05-11T10:46:51.864Z,99.90
2019-05-11T10:49:20.070Z,99.90
2019-05-11T10:51:48.736Z,99.90
2019-05-11T10:54:18.655Z,99.90
2019-05-11T10:56:48.155Z,99.60
2019-05-11T10:59:18.550Z,98.30
2019-05-11T11:01:48.372Z,98.30
2019-05-11T11:04:18.421Z,99.50
2019-05-11T11:06:48.568Z,98.90
2019-05-11T11:09:17.800Z,99.90
2019-05-11T11:11:48.649Z,99.90
2019-05-11T11:14:18.066Z,99.90
2019-05-11T11:16:47.849Z,99.80
2019-05-11T11:19:18.264Z,99.90
2019-05-11T11:21:48.574Z,99.90
2019-05-11T11:24:17.973Z,99.70
2019-05-11T11:26:48.393Z,99.40
2019-05-11T11:29:17.860Z,98.50
2019-05-11T11:31:48.150Z,98.70
2019-05-11T11:34:18.558Z,97.70
2019-05-11T11:36:48.128Z,98.10
2019-05-11T11:39:18.566Z,97.50
2019-05-11T11:41:48.546Z,97.30
2019-05-11T11:44:18.489Z,96.50
2019-05-11T11:46:52.067Z,95.90
2019-05-11T11:49:18.802Z,95.60
2019-05-11T11:51:48.444Z,97.00
2019-05-11T11:54:18.190Z,97.00
2019-05-11T11:56:48.521Z,97.10
2019-05-11T11:59:17.848Z,98.30
2019-05-11T12:01:48.506Z,98.50
2019-05-11T12:04:16.148Z,97.80
2019-05-11T12:06:44.392Z,96.80
2019-05-11T12:09:12.472Z,96.20
2019-05-11T12:11:40.689Z,96.50
2019-05-11T12:14:08.874Z,96.50
2019-05-11T12:16:38.855Z,96.60
2019-05-11T12:19:08.489Z,95.90
2019-05-11T12:21:37.966Z,95.70
2019-05-11T12:24:08.141Z,96.40
2019-05-11T12:26:38.663Z,96.50
2019-05-11T12:29:08.140Z,96.30
2019-05-11T12:31:37.991Z,95.70
2019-05-11T12:34:08.520Z,96.30
2019-05-11T12:36:38.491Z,96.40
2019-05-11T12:39:08.352Z,96.60
2019-05-11T12:41:38.711Z,96.20
2019-05-11T12:44:08.230Z,95.70
2019-05-11T12:46:37.433Z,95.40
2019-05-11T12:49:07.799Z,95.60
2019-05-11T12:51:38.209Z,95.00
2019-05-11T12:54:08.186Z,95.00
2019-05-11T12:56:38.274Z,95.40
2019-05-11T12:59:09.034Z,95.30
2019-05-11T13:01:38.138Z,94.30
2019-05-11T13:04:08.840Z,94.50
2019-05-11T13:06:38.537Z,95.40
2019-05-11T13:09:07.752Z,95.60
2019-05-11T13:11:38.000Z,95.90
2019-05-11T13:14:08.043Z,95.90
2019-05-11T13:16:37.869Z,95.50
2019-05-11T13:19:08.313Z,95.00
2019-05-11T13:21:38.235Z,95.40
2019-05-11T13:24:08.366Z,95.40
2019-05-11T13:26:38.014Z,95.20
2019-05-11T13:29:07.752Z,95.60
2019-05-11T13:31:38.205Z,94.80
2019-05-11T13:34:08.165Z,95.30
2019-05-11T13:36:38.212Z,95.80
2019-05-11T13:39:08.903Z,95.20
2019-05-11T13:41:38.266Z,95.60
2019-05-11T13:44:08.039Z,95.80
2019-05-11T13:46:38.694Z,95.70
2019-05-11T13:49:08.391Z,96.30
2019-05-11T13:51:36.098Z,96.70
2019-05-11T13:54:04.360Z,96.50
2019-05-11T13:56:32.851Z,96.50
2019-05-11T13:59:10.816Z,96.60
2019-05-11T14:01:39.317Z,96.50
2019-05-11T14:04:08.573Z,97.20
2019-05-11T14:06:37.795Z,97.30
2019-05-11T14:09:08.791Z,96.70
2019-05-11T14:11:39.019Z,96.50
2019-05-11T14:14:07.770Z,95.50
2019-05-11T14:16:37.892Z,95.00
2019-05-11T14:19:08.361Z,95.50
2019-05-11T14:21:38.451Z,94.90
2019-05-11T14:24:07.770Z,94.60
2019-05-11T14:26:38.392Z,94.80
2019-05-11T14:29:06.407Z,95.20
2019-05-11T14:31:37.988Z,95.10
2019-05-11T14:34:08.682Z,95.50
2019-05-11T14:36:38.510Z,94.70
2019-05-11T14:39:08.417Z,95.80
2019-05-11T14:41:38.028Z,94.90
2019-05-11T14:44:08.920Z,94.80
2019-05-11T14:46:38.434Z,94.80
2019-05-11T14:49:08.001Z,94.90
2019-05-11T14:51:38.825Z,94.40
2019-05-11T14:54:08.118Z,94.30
2019-05-11T14:56:38.093Z,94.60
2019-05-11T14:59:08.976Z,95.10
2019-05-11T15:01:38.185Z,94.80
2019-05-11T15:04:08.770Z,94.70
2019-05-11T15:06:38.672Z,94.90
2019-05-11T15:09:07.814Z,94.90
2019-05-11T15:11:38.625Z,95.00
2019-05-11T15:14:08.087Z,95.20
2019-05-11T15:16:38.441Z,95.40
2019-05-11T15:19:08.060Z,95.60
2019-05-11T15:21:38.505Z,95.90
2019-05-11T15:24:18.529Z,96.50
2019-05-11T15:26:48.640Z,96.60
2019-05-11T15:29:18.468Z,96.70
2019-05-11T15:31:48.566Z,96.90
2019-05-11T15:34:37.960Z,96.90
2019-05-11T15:37:07.945Z,96.90
2019-05-11T15:39:37.719Z,96.80
2019-05-11T15:42:11.726Z,97.30
2019-05-11T15:44:37.844Z,97.20
2019-05-11T15:47:07.813Z,97.20
2019-05-11T15:49:37.664Z,97.30
2019-05-11T15:52:08.149Z,97.50
2019-05-11T15:54:38.424Z,97.30
2019-05-11T15:57:08.287Z,97.30
2019-05-11T15:59:38.720Z,97.20
2019-05-11T16:02:08.448Z,97.10
2019-05-11T16:04:38.165Z,97.30
2019-05-11T16:07:08.309Z,96.90
2019-05-11T16:09:38.088Z,96.80
2019-05-11T16:12:06.234Z,96.60
2019-05-11T16:14:34.459Z,96.50
2019-05-11T16:17:02.622Z,96.40
2019-05-11T16:19:30.954Z,96.10
2019-05-11T16:21:59.154Z,96.20
2019-05-11T16:24:28.420Z,96.00
2019-05-11T16:26:58.296Z,96.00
2019-05-11T16:29:28.056Z,94.70
2019-05-11T16:31:57.818Z,94.30
2019-05-11T16:34:27.760Z,94.00
2019-05-11T16:36:59.492Z,93.80
2019-05-11T16:39:28.061Z,93.50
2019-05-11T16:41:57.859Z,93.60
2019-05-11T16:44:26.398Z,93.50
2019-05-11T16:46:54.779Z,93.20
2019-05-11T16:49:28.531Z,92.80
2019-05-11T16:51:53.230Z,92.80
2019-05-11T16:54:21.455Z,92.90
2019-05-11T16:56:49.707Z,92.90
2019-05-11T16:59:18.326Z,92.90
2019-05-11T17:02:08.042Z,93.00
2019-05-11T17:04:36.034Z,93.10
2019-05-11T17:07:03.944Z,93.20
2019-05-11T17:09:32.190Z,93.30
2019-05-11T17:12:00.448Z,93.40
2019-05-11T17:14:28.625Z,93.40
2019-05-11T17:16:58.564Z,93.40
2019-05-11T17:19:42.158Z,93.60
2019-05-11T17:21:56.915Z,93.60
2019-05-11T17:24:25.025Z,93.60
2019-05-11T17:26:53.369Z,93.70
2019-05-11T17:29:21.605Z,93.60
2019-05-11T17:31:49.856Z,93.60
2019-05-11T17:34:20.577Z,93.80
2019-05-11T17:36:47.899Z,93.80
2019-05-11T17:39:18.687Z,93.80
2019-05-11T17:41:47.986Z,93.90
2019-05-11T17:44:18.348Z,94.00
2019-05-11T17:46:46.216Z,93.60
2019-05-11T17:49:14.296Z,93.80
2019-05-11T17:51:42.476Z,93.80
2019-05-11T17:54:11.440Z,93.80
2019-05-11T17:56:39.735Z,94.30
2019-05-11T17:59:08.193Z,94.00
2019-05-11T18:01:36.757Z,94.10
2019-05-11T18:04:04.980Z,94.10
2019-05-11T18:06:33.147Z,94.30
2019-05-11T18:09:01.364Z,94.20
2019-05-11T18:11:29.901Z,94.20
2019-05-11T18:13:58.634Z,94.30
2019-05-11T18:16:26.912Z,94.40
2019-05-11T18:18:55.037Z,94.20
2019-05-11T18:21:23.311Z,94.10
2019-05-11T18:23:51.845Z,93.60
2019-05-11T18:26:21.746Z,93.60
2019-05-11T18:28:50.006Z,93.10
2019-05-11T18:31:18.368Z,93.10
2019-05-11T18:33:48.554Z,93.00
2019-05-11T18:36:18.355Z,93.10
2019-05-11T18:38:48.718Z,93.20
2019-05-11T18:41:17.549Z,93.30
2019-05-11T18:43:48.169Z,93.40
2019-05-11T18:46:22.922Z,93.60
2019-05-11T18:48:51.364Z,93.80
2019-05-11T18:51:19.839Z,94.10
2019-05-11T18:53:48.335Z,94.30
2019-05-11T18:56:18.148Z,94.70
2019-05-11T18:58:47.788Z,94.80
2019-05-11T19:01:17.849Z,95.50
2019-05-11T19:03:47.947Z,95.40
2019-05-11T19:06:18.349Z,95.40
2019-05-11T19:08:47.854Z,95.70
2019-05-11T19:11:18.288Z,96.20
2019-05-11T19:13:47.789Z,96.70
2019-05-11T19:16:18.699Z,96.80
2019-05-11T19:18:47.959Z,97.30
2019-05-11T19:21:17.968Z,97.90
2019-05-11T19:23:48.674Z,98.30
2019-05-11T19:26:17.867Z,98.90
2019-05-11T19:28:46.446Z,99.20
2019-05-11T19:31:14.890Z,99.40
2019-05-11T19:33:45.682Z,99.80
2019-05-11T19:36:13.356Z,99.90
2019-05-11T19:38:41.847Z,99.90
2019-05-11T19:41:10.096Z,99.90
2019-05-11T19:43:38.511Z,99.90
2019-05-11T19:46:08.856Z,99.90
2019-05-11T19:48:38.416Z,99.90
2019-05-11T19:51:09.121Z,99.90
2019-05-11T19:53:38.691Z,99.90
2019-05-11T19:56:07.805Z,99.90
2019-05-11T19:58:38.060Z,99.90
2019-05-11T20:01:08.728Z,99.90
2019-05-11T20:03:37.860Z,99.90
2019-05-11T20:06:08.531Z,99.90
2019-05-11T20:08:36.833Z,99.90
2019-05-11T20:11:08.070Z,99.90
2019-05-11T20:13:39.023Z,99.90
2019-05-11T20:16:11.957Z,99.90
2019-05-11T20:18:41.530Z,99.90
2019-05-11T20:21:19.194Z,99.90
2019-05-11T20:23:41.546Z,99.90
2019-05-11T20:26:30.910Z,99.90
2019-05-11T20:28:59.761Z,99.90
2019-05-11T20:31:30.958Z,99.90
2019-05-11T20:33:59.557Z,99.90
2019-05-11T20:36:27.980Z,99.90
2019-05-11T20:38:57.786Z,99.90
2019-05-11T20:41:27.964Z,99.90
2019-05-11T20:43:58.049Z,99.90
2019-05-11T20:46:27.761Z,99.90
2019-05-11T20:48:57.970Z,99.90
2019-05-11T20:51:36.266Z,99.90
2019-05-11T20:53:57.892Z,99.90
2019-05-11T20:56:28.372Z,99.90
2019-05-11T20:58:59.528Z,99.90
2019-05-11T21:01:28.589Z,99.90
2019-05-11T21:03:58.463Z,99.90
2019-05-11T21:06:29.368Z,99.90
2019-05-11T21:08:57.195Z,99.90
2019-05-11T21:11:25.777Z,99.90
2019-05-11T21:13:54.437Z,99.90
2019-05-11T21:16:22.809Z,99.90
2019-05-11T21:18:51.230Z,99.90
2019-05-11T21:21:20.014Z,99.90
2019-05-11T21:23:48.837Z,99.90
2019-05-11T21:26:18.852Z,99.90
2019-05-11T21:28:48.679Z,99.90
2019-05-11T21:31:18.829Z,99.90
2019-05-11T21:33:47.244Z,99.90
2019-05-11T21:36:17.793Z,99.90
2019-05-11T21:38:48.013Z,99.90
2019-05-11T21:41:16.043Z,99.90
2019-05-11T21:43:44.494Z,99.90
2019-05-11T21:46:12.714Z,99.90
2019-05-11T21:48:41.106Z,99.90
2019-05-11T21:51:09.281Z,99.90
2019-05-11T21:53:38.158Z,99.90
2019-05-11T21:56:08.158Z,99.90
2019-05-11T21:58:37.760Z,99.90
2019-05-11T22:01:06.665Z,99.90
2019-05-11T22:03:35.001Z,99.90
2019-05-11T22:06:03.572Z,99.90
2019-05-11T22:08:31.908Z,99.90
2019-05-11T22:11:00.243Z,99.90
2019-05-11T22:13:28.893Z,99.90
2019-05-11T22:15:58.087Z,99.90
2019-05-11T22:18:30.916Z,99.90
2019-05-11T22:20:57.910Z,99.90
2019-05-11T22:23:28.160Z,99.90
2019-05-11T22:25:58.694Z,99.90
2019-05-11T22:28:28.491Z,99.90
2019-05-11T22:30:56.491Z,99.90
2019-05-11T22:33:25.613Z,99.90
2019-05-11T22:35:54.922Z,99.90
2019-05-11T22:38:23.148Z,99.90
2019-05-11T22:40:51.248Z,99.90
2019-05-11T22:43:19.436Z,99.90
2019-05-11T22:45:48.631Z,99.90
2019-05-11T22:48:16.779Z,99.90
2019-05-11T22:50:45.075Z,99.90
2019-05-11T22:53:13.242Z,99.90
2019-05-11T22:55:41.437Z,99.90
2019-05-11T22:58:09.508Z,99.90
2019-05-11T23:00:42.121Z,99.90
2019-05-11T23:03:10.844Z,99.90
2019-05-11T23:05:40.173Z,99.90
2019-05-11T23:08:08.406Z,99.90
2019-05-11T23:10:38.750Z,99.90
2019-05-11T23:13:08.209Z,99.90
2019-05-11T23:15:40.046Z,99.90
2019-05-11T23:18:08.530Z,99.90
2019-05-11T23:20:38.616Z,99.90
2019-05-11T23:23:08.785Z,99.90
2019-05-11T23:25:57.977Z,99.90
2019-05-11T23:28:28.627Z,99.90
2019-05-11T23:30:58.260Z,99.90
2019-05-11T23:33:27.930Z,99.90
2019-05-11T23:35:58.577Z,99.90
2019-05-11T23:38:28.156Z,99.90
2019-05-11T23:40:58.217Z,99.90
2019-05-11T23:43:29.794Z,99.90
2019-05-11T23:45:57.758Z,99.90
2019-05-11T23:48:28.029Z,99.90
2019-05-11T23:50:58.041Z,99.90
2019-05-11T23:53:28.046Z,99.90
2019-05-11T23:55:57.991Z,99.90
2019-05-11T23:58:28.100Z,99.90
